CST,Max TemperatureF,Mean TemperatureF,Min TemperatureF,Max Dew PointF,MeanDew PointF,Min DewpointF,Max Humidity, Mean Humidity, Min Humidity, Max Sea Level PressureIn, Mean Sea Level PressureIn, Min Sea Level PressureIn, Max VisibilityMiles, Mean VisibilityMiles, Min VisibilityMiles, Max Wind SpeedMPH, Mean Wind SpeedMPH, Max Gust SpeedMPH,PrecipitationIn, CloudCover, Events, WindDirDegrees
2013-2-1,6,-2,-9,3,-11,-18,85,66,51,30.28,30.19,30.01,10,9,2,12,7,21,0.00,4,Snow,235
2013-2-2,12,9,6,7,3,1,85,77,62,30.10,30.03,29.93,10,9,2,9,4,12,0.00,7,Rain-Snow,344
2013-2-3,17,14,10,14,8,1,93,76,58,30.04,29.97,29.87,10,8,1,17,6,25,0.01,8,Snow,286
2013-2-4,17,12,8,14,7,3,93,72,53,29.98,29.91,29.85,10,10,2,12,7,16,0.01,5,Snow,27
2013-2-5,32,22,12,25,18,5,93,82,69,30.07,29.85,29.72,10,8,0,21,9,29,0.01,7,Snow,280
2013-2-6,35,20,5,34,20,0,100,86,74,30.11,30.03,29.91,10,7,2,21,5,29,0.02,5,Rain-Snow,160
2013-2-7,35,30,26,34,29,23,100,92,86,30.14,29.98,29.92,10,6,1,16,7,21,0.00,8,Rain,29
2013-2-8,26,22,19,23,20,16,93,84,74,30.34,30.27,30.15,10,10,8,14,7,18,0.00,7,,57
2013-2-9,30,27,24,27,24,21,93,87,86,30.28,30.12,29.93,10,9,6,18,12,26,0.00,8,,167
2013-2-10,39,34,30,39,33,28,100,95,81,29.95,29.51,29.27,10,4,0,22,12,34,0.31,8,Fog-Rain-Snow,153
2013-2-11,33,27,21,34,22,14,100,82,74,30.02,29.73,29.30,10,7,1,21,15,37,0.00,8,Rain-Snow,287
2013-2-12,33,26,19,27,20,14,93,77,65,30.06,29.96,29.81,10,10,10,14,8,23,0.00,3,Snow,229
2013-2-13,37,29,21,32,27,21,100,86,70,29.81,29.70,29.56,10,9,4,9,4,15,0.00,4,Rain,238
2013-2-14,37,29,19,32,24,5,93,74,46,30.09,29.80,29.56,10,10,3,23,11,31,0.00,7,Rain-Snow,316
2013-2-15,21,16,10,9,5,3,79,63,54,30.24,30.19,30.09,10,10,10,17,9,23,0.00,1,,313
2013-2-16,19,12,6,9,5,1,79,71,58,30.22,30.15,30.11,10,10,10,9,5,13,0.00,1,,325
2013-2-17,30,20,10,21,13,3,79,70,64,30.11,29.97,29.72,10,10,10,17,9,30,0.00,2,,150
2013-2-18,37,24,8,32,21,3,100,79,69,29.71,29.60,29.52,10,9,2,18,11,37,0.00,4,Rain-Snow,242
2013-2-19,8,4,0,3,-4,-8,79,69,61,30.28,29.99,29.72,10,7,1,24,16,32,0.00,6,Rain-Snow,305
2013-2-20,17,8,0,7,0,-9,73,66,58,30.38,30.34,30.28,10,10,10,13,7,,0.00,0,,343
2013-2-21,23,16,8,21,10,3,93,76,63,30.36,30.21,29.92,10,9,1,17,7,26,0.03,2,Snow,71
2013-2-22,28,24,21,23,20,18,93,85,74,29.91,29.83,29.78,10,7,1,15,9,21,0.05,7,Rain-Snow,22
2013-2-23,23,18,12,18,15,9,93,82,74,29.95,29.88,29.85,10,10,7,12,6,16,0.00,5,Snow,259
2013-2-24,30,18,5,19,12,1,93,74,55,30.09,30.03,29.95,10,10,8,7,2,,0.00,2,,140
2013-2-25,37,30,24,25,23,19,86,75,60,30.09,30.05,29.97,10,9,7,7,2,,0.00,6,,112
2013-2-26,35,30,26,28,24,21,93,75,65,29.96,29.80,29.70,10,8,2,20,10,29,0.00,4,Rain-Snow,34
2013-2-27,33,30,28,30,28,25,100,88,80,29.89,29.76,29.71,10,5,1,15,11,25,0.01,7,Rain-Snow,353
2013-2-28,32,30,28,27,23,19,86,77,69,30.12,30.03,29.89,10,10,7,16,11,21,0.00,8,Rain-Snow,351